sensor_id;sensor_type;location;lat;lon;timestamp;pressure;altitude;pressure_sealevel;temperature;humidity
70009;BME280;59542;37.950;-122.338;2022-09-27T00:02:25;101214.34;;;19.03;61.38
70009;BME280;59542;37.950;-122.338;2022-09-27T00:04:51;101208.09;;;18.81;62.00
70009;BME280;59542;37.950;-122.338;2022-09-27T00:07:17;101210.66;;;18.70;62.95
70009;BME280;59542;37.950;-122.338;2022-09-27T00:09:43;101209.72;;;18.82;62.39
70009;BME280;59542;37.950;-122.338;2022-09-27T00:12:10;101202.00;;;18.52;63.18
70009;BME280;59542;37.950;-122.338;2022-09-27T00:14:36;101199.13;;;18.41;64.09
70009;BME280;59542;37.950;-122.338;2022-09-27T00:17:02;101207.66;;;18.50;64.43
70009;BME280;59542;37.950;-122.338;2022-09-27T00:19:28;101210.06;;;18.30;64.50
70009;BME280;59542;37.950;-122.338;2022-09-27T00:21:55;101205.00;;;18.16;64.97
70009;BME280;59542;37.950;-122.338;2022-09-27T00:24:22;101207.03;;;18.26;65.01
70009;BME280;59542;37.950;-122.338;2022-09-27T00:26:48;101194.72;;;18.35;64.92
70009;BME280;59542;37.950;-122.338;2022-09-27T00:29:17;101196.88;;;18.00;65.88
70009;BME280;59542;37.950;-122.338;2022-09-27T00:31:44;101190.06;;;17.97;66.59
70009;BME280;59542;37.950;-122.338;2022-09-27T00:34:15;101193.03;;;18.12;66.65
70009;BME280;59542;37.950;-122.338;2022-09-27T00:36:43;101187.31;;;18.31;65.89
70009;BME280;59542;37.950;-122.338;2022-09-27T00:39:09;101186.59;;;18.35;64.90
70009;BME280;59542;37.950;-122.338;2022-09-27T00:41:36;101185.44;;;18.31;65.23
70009;BME280;59542;37.950;-122.338;2022-09-27T00:49:46;101183.25;;;18.11;65.98
70009;BME280;59542;37.950;-122.338;2022-09-27T00:55:12;101174.81;;;17.91;67.03
70009;BME280;59542;37.950;-122.338;2022-09-27T00:57:41;101174.31;;;17.77;67.79
70009;BME280;59542;37.950;-122.338;2022-09-27T01:00:10;101172.25;;;17.84;68.23
70009;BME280;59542;37.950;-122.338;2022-09-27T01:02:40;101170.78;;;17.48;68.30
70009;BME280;59542;37.950;-122.338;2022-09-27T01:05:09;101175.66;;;17.63;69.07
70009;BME280;59542;37.950;-122.338;2022-09-27T01:07:36;101176.38;;;17.58;68.17
70009;BME280;59542;37.950;-122.338;2022-09-27T01:10:03;101178.81;;;17.43;68.75
70009;BME280;59542;37.950;-122.338;2022-09-27T01:15:54;101176.06;;;17.26;69.74
70009;BME280;59542;37.950;-122.338;2022-09-27T01:18:50;101181.72;;;17.25;69.88
70009;BME280;59542;37.950;-122.338;2022-09-27T01:27:11;101189.53;;;17.09;70.66
70009;BME280;59542;37.950;-122.338;2022-09-27T01:30:22;101188.34;;;16.88;70.26
70009;BME280;59542;37.950;-122.338;2022-09-27T01:35:53;101174.28;;;17.03;70.47
70009;BME280;59542;37.950;-122.338;2022-09-27T01:38:46;101171.84;;;17.02;71.23
70009;BME280;59542;37.950;-122.338;2022-09-27T01:41:47;101180.63;;;17.09;71.08
70009;BME280;59542;37.950;-122.338;2022-09-27T01:44:44;101171.56;;;16.75;71.96
70009;BME280;59542;37.950;-122.338;2022-09-27T01:47:23;101184.00;;;16.64;72.18
70009;BME280;59542;37.950;-122.338;2022-09-27T01:50:29;101180.44;;;16.87;71.80
70009;BME280;59542;37.950;-122.338;2022-09-27T01:53:26;101185.06;;;16.75;72.33
70009;BME280;59542;37.950;-122.338;2022-09-27T01:55:56;101190.00;;;16.66;72.50
70009;BME280;59542;37.950;-122.338;2022-09-27T01:58:49;101195.75;;;16.70;72.59
70009;BME280;59542;37.950;-122.338;2022-09-27T02:01:13;101187.22;;;16.49;73.96
70009;BME280;59542;37.950;-122.338;2022-09-27T02:03:45;101190.94;;;16.48;73.78
70009;BME280;59542;37.950;-122.338;2022-09-27T02:06:18;101188.38;;;16.30;74.30
70009;BME280;59542;37.950;-122.338;2022-09-27T02:08:54;101193.31;;;16.09;75.41
70009;BME280;59542;37.950;-122.338;2022-09-27T02:11:21;101187.44;;;16.24;74.65
70009;BME280;59542;37.950;-122.338;2022-09-27T02:14:03;101185.44;;;16.08;75.38
70009;BME280;59542;37.950;-122.338;2022-09-27T02:16:50;101187.91;;;16.09;75.23
70009;BME280;59542;37.950;-122.338;2022-09-27T02:25:24;101197.66;;;16.10;75.77
70009;BME280;59542;37.950;-122.338;2022-09-27T02:30:22;101196.81;;;15.87;75.96
70009;BME280;59542;37.950;-122.338;2022-09-27T02:32:49;101203.38;;;15.79;76.88
70009;BME280;59542;37.950;-122.338;2022-09-27T02:35:52;101202.72;;;15.35;78.89
70009;BME280;59542;37.950;-122.338;2022-09-27T02:38:12;101201.22;;;15.39;78.69
70009;BME280;59542;37.950;-122.338;2022-09-27T02:40:43;101210.00;;;15.35;79.12
70009;BME280;59542;37.950;-122.338;2022-09-27T02:43:11;101202.88;;;15.40;79.25
70009;BME280;59542;37.950;-122.338;2022-09-27T02:46:02;101202.91;;;15.52;78.45
70009;BME280;59542;37.950;-122.338;2022-09-27T02:51:10;101209.50;;;15.56;78.21
70009;BME280;59542;37.950;-122.338;2022-09-27T02:53:46;101206.00;;;15.37;78.66
70009;BME280;59542;37.950;-122.338;2022-09-27T02:56:25;101209.91;;;15.41;78.54
70009;BME280;59542;37.950;-122.338;2022-09-27T03:01:30;101226.09;;;15.41;78.57
70009;BME280;59542;37.950;-122.338;2022-09-27T03:06:40;101236.75;;;15.36;79.05
70009;BME280;59542;37.950;-122.338;2022-09-27T03:09:18;101239.56;;;15.41;78.92
70009;BME280;59542;37.950;-122.338;2022-09-27T03:11:45;101236.75;;;15.36;78.51
70009;BME280;59542;37.950;-122.338;2022-09-27T03:14:11;101248.06;;;15.26;79.08
70009;BME280;59542;37.950;-122.338;2022-09-27T03:16:37;101244.63;;;15.19;79.62
70009;BME280;59542;37.950;-122.338;2022-09-27T03:19:04;101246.47;;;15.37;78.50
70009;BME280;59542;37.950;-122.338;2022-09-27T03:21:30;101263.22;;;15.27;79.06
70009;BME280;59542;37.950;-122.338;2022-09-27T03:23:56;101267.53;;;15.10;80.38
70009;BME280;59542;37.950;-122.338;2022-09-27T03:26:22;101271.09;;;15.11;80.38
70009;BME280;59542;37.950;-122.338;2022-09-27T03:28:48;101279.00;;;15.24;79.47
70009;BME280;59542;37.950;-122.338;2022-09-27T03:31:15;101273.94;;;15.16;79.37
70009;BME280;59542;37.950;-122.338;2022-09-27T03:33:41;101280.75;;;15.00;79.42
70009;BME280;59542;37.950;-122.338;2022-09-27T03:36:07;101285.09;;;15.01;80.00
70009;BME280;59542;37.950;-122.338;2022-09-27T03:38:33;101284.78;;;14.91;80.06
70009;BME280;59542;37.950;-122.338;2022-09-27T03:40:59;101291.88;;;15.03;79.63
70009;BME280;59542;37.950;-122.338;2022-09-27T03:43:25;101288.03;;;14.99;79.24
70009;BME280;59542;37.950;-122.338;2022-09-27T03:45:52;101282.69;;;14.93;79.58
70009;BME280;59542;37.950;-122.338;2022-09-27T03:48:18;101289.50;;;14.95;79.97
70009;BME280;59542;37.950;-122.338;2022-09-27T03:50:44;101300.28;;;14.95;79.97
70009;BME280;59542;37.950;-122.338;2022-09-27T03:53:10;101299.16;;;14.85;80.11
70009;BME280;59542;37.950;-122.338;2022-09-27T03:55:37;101300.31;;;14.70;80.34
70009;BME280;59542;37.950;-122.338;2022-09-27T03:58:03;101309.69;;;14.68;80.39
70009;BME280;59542;37.950;-122.338;2022-09-27T04:00:30;101311.97;;;14.64;80.35
70009;BME280;59542;37.950;-122.338;2022-09-27T04:03:00;101302.75;;;14.53;80.49
70009;BME280;59542;37.950;-122.338;2022-09-27T04:05:27;101313.59;;;14.72;80.03
70009;BME280;59542;37.950;-122.338;2022-09-27T04:07:54;101302.50;;;14.62;80.36
70009;BME280;59542;37.950;-122.338;2022-09-27T04:10:20;101297.16;;;14.55;80.58
70009;BME280;59542;37.950;-122.338;2022-09-27T04:12:47;101301.13;;;14.52;80.88
70009;BME280;59542;37.950;-122.338;2022-09-27T04:15:13;101309.19;;;14.52;80.91
70009;BME280;59542;37.950;-122.338;2022-09-27T04:17:43;101314.41;;;14.47;81.23
70009;BME280;59542;37.950;-122.338;2022-09-27T04:20:09;101316.22;;;14.53;80.72
70009;BME280;59542;37.950;-122.338;2022-09-27T04:22:40;101321.84;;;14.52;80.58
70009;BME280;59542;37.950;-122.338;2022-09-27T04:25:08;101317.09;;;14.47;80.98
70009;BME280;59542;37.950;-122.338;2022-09-27T04:27:35;101315.72;;;14.38;80.84
70009;BME280;59542;37.950;-122.338;2022-09-27T04:30:02;101320.00;;;14.46;80.74
70009;BME280;59542;37.950;-122.338;2022-09-27T04:32:29;101324.13;;;14.48;80.78
70009;BME280;59542;37.950;-122.338;2022-09-27T04:34:55;101318.59;;;14.37;81.13
70009;BME280;59542;37.950;-122.338;2022-09-27T04:37:39;101320.41;;;14.43;80.50
70009;BME280;59542;37.950;-122.338;2022-09-27T04:40:06;101325.88;;;14.36;80.86
70009;BME280;59542;37.950;-122.338;2022-09-27T04:42:33;101329.28;;;14.25;81.42
70009;BME280;59542;37.950;-122.338;2022-09-27T04:44:59;101332.94;;;14.31;81.43
70009;BME280;59542;37.950;-122.338;2022-09-27T04:47:25;101332.13;;;14.30;80.95
70009;BME280;59542;37.950;-122.338;2022-09-27T04:49:51;101331.41;;;14.16;80.86
70009;BME280;59542;37.950;-122.338;2022-09-27T04:52:17;101332.25;;;14.17;81.70
70009;BME280;59542;37.950;-122.338;2022-09-27T04:54:44;101338.81;;;14.21;81.60
70009;BME280;59542;37.950;-122.338;2022-09-27T04:57:10;101332.94;;;14.31;81.06
70009;BME280;59542;37.950;-122.338;2022-09-27T04:59:36;101345.81;;;14.29;80.88
70009;BME280;59542;37.950;-122.338;2022-09-27T05:02:03;101343.38;;;14.20;81.51
70009;BME280;59542;37.950;-122.338;2022-09-27T05:04:30;101335.69;;;14.24;81.79
70009;BME280;59542;37.950;-122.338;2022-09-27T05:06:56;101336.09;;;14.27;81.47
70009;BME280;59542;37.950;-122.338;2022-09-27T05:09:22;101338.81;;;14.21;81.75
70009;BME280;59542;37.950;-122.338;2022-09-27T05:11:49;101341.09;;;14.24;81.69
70009;BME280;59542;37.950;-122.338;2022-09-27T05:14:15;101339.44;;;14.23;81.48
70009;BME280;59542;37.950;-122.338;2022-09-27T05:16:41;101336.13;;;14.21;81.23
70009;BME280;59542;37.950;-122.338;2022-09-27T05:19:08;101347.03;;;14.33;80.51
70009;BME280;59542;37.950;-122.338;2022-09-27T05:21:35;101335.53;;;14.19;81.19
70009;BME280;59542;37.950;-122.338;2022-09-27T05:24:01;101337.97;;;14.27;80.90
70009;BME280;59542;37.950;-122.338;2022-09-27T05:26:27;101338.50;;;14.36;80.86
70009;BME280;59542;37.950;-122.338;2022-09-27T05:28:53;101331.53;;;14.28;80.59
70009;BME280;59542;37.950;-122.338;2022-09-27T05:31:19;101340.59;;;14.34;80.40
70009;BME280;59542;37.950;-122.338;2022-09-27T05:33:46;101339.25;;;14.18;80.61
70009;BME280;59542;37.950;-122.338;2022-09-27T05:36:12;101340.25;;;14.23;80.29
70009;BME280;59542;37.950;-122.338;2022-09-27T05:38:39;101341.97;;;14.18;80.38
70009;BME280;59542;37.950;-122.338;2022-09-27T05:41:07;101332.66;;;14.14;79.98
70009;BME280;59542;37.950;-122.338;2022-09-27T05:43:33;101344.66;;;14.18;79.90
70009;BME280;59542;37.950;-122.338;2022-09-27T05:46:01;101338.03;;;14.14;80.11
70009;BME280;59542;37.950;-122.338;2022-09-27T05:48:27;101342.84;;;14.12;80.33
70009;BME280;59542;37.950;-122.338;2022-09-27T05:50:55;101345.47;;;14.18;80.30
70009;BME280;59542;37.950;-122.338;2022-09-27T05:53:21;101347.59;;;14.10;80.76
70009;BME280;59542;37.950;-122.338;2022-09-27T05:55:48;101350.38;;;14.28;80.38
70009;BME280;59542;37.950;-122.338;2022-09-27T05:58:14;101351.81;;;14.31;80.93
70009;BME280;59542;37.950;-122.338;2022-09-27T06:00:41;101352.38;;;14.39;80.50
70009;BME280;59542;37.950;-122.338;2022-09-27T06:03:10;101357.72;;;14.46;80.65
70009;BME280;59542;37.950;-122.338;2022-09-27T06:05:38;101357.69;;;14.52;80.03
70009;BME280;59542;37.950;-122.338;2022-09-27T06:08:07;101348.66;;;14.65;79.75
70009;BME280;59542;37.950;-122.338;2022-09-27T06:10:34;101349.94;;;14.63;79.86
70009;BME280;59542;37.950;-122.338;2022-09-27T06:13:05;101348.88;;;14.64;79.37
70009;BME280;59542;37.950;-122.338;2022-09-27T06:15:33;101345.13;;;14.65;79.36
70009;BME280;59542;37.950;-122.338;2022-09-27T06:18:04;101349.38;;;14.79;78.60
70009;BME280;59542;37.950;-122.338;2022-09-27T06:20:31;101352.22;;;14.84;78.30
70009;BME280;59542;37.950;-122.338;2022-09-27T06:23:23;101352.34;;;14.71;78.69
70009;BME280;59542;37.950;-122.338;2022-09-27T06:25:50;101357.63;;;14.84;77.78
70009;BME280;59542;37.950;-122.338;2022-09-27T06:28:18;101358.72;;;14.76;77.71
70009;BME280;59542;37.950;-122.338;2022-09-27T06:30:48;101346.03;;;14.84;77.26
70009;BME280;59542;37.950;-122.338;2022-09-27T06:33:17;101353.19;;;14.71;77.68
70009;BME280;59542;37.950;-122.338;2022-09-27T06:35:45;101349.81;;;14.76;78.00
70009;BME280;59542;37.950;-122.338;2022-09-27T06:38:14;101354.69;;;14.86;77.55
70009;BME280;59542;37.950;-122.338;2022-09-27T06:40:43;101351.72;;;14.94;77.20
70009;BME280;59542;37.950;-122.338;2022-09-27T06:43:17;101356.28;;;14.93;76.63
70009;BME280;59542;37.950;-122.338;2022-09-27T06:45:47;101352.22;;;14.84;76.79
70009;BME280;59542;37.950;-122.338;2022-09-27T06:48:14;101354.56;;;14.99;76.28
70009;BME280;59542;37.950;-122.338;2022-09-27T06:50:43;101345.97;;;15.09;75.56
70009;BME280;59542;37.950;-122.338;2022-09-27T06:53:11;101343.19;;;15.15;75.12
70009;BME280;59542;37.950;-122.338;2022-09-27T06:55:38;101338.53;;;15.04;75.38
70009;BME280;59542;37.950;-122.338;2022-09-27T06:58:04;101333.03;;;15.17;75.20
70009;BME280;59542;37.950;-122.338;2022-09-27T07:00:52;101334.94;;;15.10;75.14
70009;BME280;59542;37.950;-122.338;2022-09-27T07:03:20;101338.19;;;15.00;76.07
70009;BME280;59542;37.950;-122.338;2022-09-27T07:05:55;101329.63;;;15.03;76.26
70009;BME280;59542;37.950;-122.338;2022-09-27T07:08:22;101329.13;;;14.95;76.52
70009;BME280;59542;37.950;-122.338;2022-09-27T07:10:51;101335.81;;;15.11;75.87
70009;BME280;59542;37.950;-122.338;2022-09-27T07:13:20;101337.56;;;14.98;76.30
70009;BME280;59542;37.950;-122.338;2022-09-27T07:15:47;101345.50;;;14.93;76.18
70009;BME280;59542;37.950;-122.338;2022-09-27T07:18:13;101344.91;;;14.91;76.48
70009;BME280;59542;37.950;-122.338;2022-09-27T07:20:39;101344.81;;;14.79;76.83
70009;BME280;59542;37.950;-122.338;2022-09-27T07:23:07;101330.00;;;14.89;76.61
70009;BME280;59542;37.950;-122.338;2022-09-27T07:25:35;101336.97;;;14.78;77.24
70009;BME280;59542;37.950;-122.338;2022-09-27T07:28:07;101328.34;;;14.88;76.84
70009;BME280;59542;37.950;-122.338;2022-09-27T07:30:34;101327.34;;;14.82;76.71
70009;BME280;59542;37.950;-122.338;2022-09-27T07:33:03;101327.72;;;14.67;77.09
70009;BME280;59542;37.950;-122.338;2022-09-27T07:35:30;101329.44;;;14.62;77.41
70009;BME280;59542;37.950;-122.338;2022-09-27T07:37:57;101335.31;;;14.77;76.78
70009;BME280;59542;37.950;-122.338;2022-09-27T07:40:25;101332.63;;;14.77;76.92
70009;BME280;59542;37.950;-122.338;2022-09-27T07:42:55;101334.00;;;14.61;76.84
70009;BME280;59542;37.950;-122.338;2022-09-27T07:45:22;101331.50;;;14.60;77.13
70009;BME280;59542;37.950;-122.338;2022-09-27T07:47:48;101330.91;;;14.58;77.31
70009;BME280;59542;37.950;-122.338;2022-09-27T07:50:15;101322.56;;;14.66;77.30
70009;BME280;59542;37.950;-122.338;2022-09-27T07:52:43;101314.41;;;14.47;77.49
70009;BME280;59542;37.950;-122.338;2022-09-27T07:55:11;101312.81;;;14.40;77.58
70009;BME280;59542;37.950;-122.338;2022-09-27T07:57:38;101312.34;;;14.43;78.02
70009;BME280;59542;37.950;-122.338;2022-09-27T08:00:07;101314.22;;;14.42;78.45
70009;BME280;59542;37.950;-122.338;2022-09-27T08:02:34;101316.75;;;14.37;79.35
70009;BME280;59542;37.950;-122.338;2022-09-27T08:05:02;101323.25;;;14.55;78.97
70009;BME280;59542;37.950;-122.338;2022-09-27T08:07:29;101332.06;;;14.68;78.40
70009;BME280;59542;37.950;-122.338;2022-09-27T08:09:56;101326.94;;;14.60;78.64
70009;BME280;59542;37.950;-122.338;2022-09-27T08:12:22;101340.81;;;14.64;78.71
70009;BME280;59542;37.950;-122.338;2022-09-27T08:14:48;101349.66;;;14.71;78.08
70009;BME280;59542;37.950;-122.338;2022-09-27T08:17:15;101342.66;;;14.63;77.97
70009;BME280;59542;37.950;-122.338;2022-09-27T08:19:42;101344.88;;;14.48;78.64
70009;BME280;59542;37.950;-122.338;2022-09-27T08:22:11;101344.38;;;14.58;78.82
70009;BME280;59542;37.950;-122.338;2022-09-27T08:24:41;101351.97;;;14.67;78.30
70009;BME280;59542;37.950;-122.338;2022-09-27T08:27:07;101349.78;;;14.58;78.13
70009;BME280;59542;37.950;-122.338;2022-09-27T08:29:34;101346.41;;;14.62;77.60
70009;BME280;59542;37.950;-122.338;2022-09-27T08:32:00;101342.28;;;14.60;77.31
70009;BME280;59542;37.950;-122.338;2022-09-27T08:34:26;101342.91;;;14.62;77.27
70009;BME280;59542;37.950;-122.338;2022-09-27T08:36:54;101345.59;;;14.62;76.88
70009;BME280;59542;37.950;-122.338;2022-09-27T08:39:21;101361.19;;;14.53;77.29
70009;BME280;59542;37.950;-122.338;2022-09-27T08:44:47;101353.44;;;14.63;77.29
70009;BME280;59542;37.950;-122.338;2022-09-27T08:50:03;101353.13;;;14.53;77.33
70009;BME280;59542;37.950;-122.338;2022-09-27T08:53:04;101347.25;;;14.63;77.47
70009;BME280;59542;37.950;-122.338;2022-09-27T08:55:36;101347.31;;;14.56;77.33
70009;BME280;59542;37.950;-122.338;2022-09-27T08:58:18;101360.59;;;14.51;77.72
70009;BME280;59542;37.950;-122.338;2022-09-27T09:00:49;101352.53;;;14.51;77.64
70009;BME280;59542;37.950;-122.338;2022-09-27T09:03:23;101343.38;;;14.52;77.45
70009;BME280;59542;37.950;-122.338;2022-09-27T09:08:51;101334.47;;;14.51;77.76
70009;BME280;59542;37.950;-122.338;2022-09-27T09:11:38;101342.72;;;14.57;77.61
70009;BME280;59542;37.950;-122.338;2022-09-27T09:17:31;101361.22;;;14.46;77.56
70009;BME280;59542;37.950;-122.338;2022-09-27T09:23:19;101367.41;;;14.53;77.56
70009;BME280;59542;37.950;-122.338;2022-09-27T09:29:01;101369.06;;;14.79;76.48
70009;BME280;59542;37.950;-122.338;2022-09-27T09:31:34;101368.97;;;14.68;76.53
70009;BME280;59542;37.950;-122.338;2022-09-27T09:34:28;101355.25;;;14.69;76.49
70009;BME280;59542;37.950;-122.338;2022-09-27T09:37:04;101353.44;;;14.63;76.65
70009;BME280;59542;37.950;-122.338;2022-09-27T09:39:46;101350.53;;;14.65;76.22
70009;BME280;59542;37.950;-122.338;2022-09-27T09:50:44;101337.56;;;14.55;75.84
70009;BME280;59542;37.950;-122.338;2022-09-27T09:54:01;101344.22;;;14.52;75.14
70009;BME280;59542;37.950;-122.338;2022-09-27T09:56:15;101341.09;;;14.56;75.31
70009;BME280;59542;37.950;-122.338;2022-09-27T09:58:47;101350.34;;;14.60;75.14
70009;BME280;59542;37.950;-122.338;2022-09-27T10:04:00;101343.00;;;14.48;75.22
70009;BME280;59542;37.950;-122.338;2022-09-27T10:06:27;101343.16;;;14.53;75.28
70009;BME280;59542;37.950;-122.338;2022-09-27T10:08:56;101352.97;;;14.41;75.71
70009;BME280;59542;37.950;-122.338;2022-09-27T10:11:39;101358.53;;;14.46;75.74
70009;BME280;59542;37.950;-122.338;2022-09-27T10:14:26;101360.88;;;14.68;74.96
70009;BME280;59542;37.950;-122.338;2022-09-27T10:16:58;101360.94;;;14.61;74.84
70009;BME280;59542;37.950;-122.338;2022-09-27T10:19:31;101356.75;;;14.65;74.94
70009;BME280;59542;37.950;-122.338;2022-09-27T10:22:01;101360.59;;;14.76;74.57
70009;BME280;59542;37.950;-122.338;2022-09-27T10:24:28;101355.03;;;14.71;74.40
70009;BME280;59542;37.950;-122.338;2022-09-27T10:26:59;101368.72;;;14.69;74.19
70009;BME280;59542;37.950;-122.338;2022-09-27T10:29:32;101360.88;;;14.68;74.50
70009;BME280;59542;37.950;-122.338;2022-09-27T10:32:01;101355.16;;;14.83;73.99
70009;BME280;59542;37.950;-122.338;2022-09-27T10:34:37;101359.50;;;14.84;74.12
70009;BME280;59542;37.950;-122.338;2022-09-27T10:39:36;101365.00;;;14.70;74.63
70009;BME280;59542;37.950;-122.338;2022-09-27T10:44:45;101367.28;;;14.92;73.78
70009;BME280;59542;37.950;-122.338;2022-09-27T10:47:19;101353.16;;;14.96;73.57
70009;BME280;59542;37.950;-122.338;2022-09-27T10:49:48;101353.38;;;14.95;73.01
70009;BME280;59542;37.950;-122.338;2022-09-27T10:52:23;101350.28;;;14.91;72.61
70009;BME280;59542;37.950;-122.338;2022-09-27T10:57:22;101364.00;;;14.90;72.59
70009;BME280;59542;37.950;-122.338;2022-09-27T10:59:56;101357.47;;;14.79;72.83
70009;BME280;59542;37.950;-122.338;2022-09-27T11:02:30;101361.88;;;14.73;72.90
70009;BME280;59542;37.950;-122.338;2022-09-27T11:05:10;101356.47;;;14.73;73.07
70009;BME280;59542;37.950;-122.338;2022-09-27T11:07:48;101359.56;;;14.77;72.89
70009;BME280;59542;37.950;-122.338;2022-09-27T11:13:13;101363.28;;;14.76;72.21
70009;BME280;59542;37.950;-122.338;2022-09-27T11:24:15;101382.31;;;14.81;72.08
70009;BME280;59542;37.950;-122.338;2022-09-27T11:30:18;101372.03;;;14.96;71.57
70009;BME280;59542;37.950;-122.338;2022-09-27T11:35:49;101380.19;;;14.90;71.83
70009;BME280;59542;37.950;-122.338;2022-09-27T11:46:51;101387.88;;;14.86;70.94
70009;BME280;59542;37.950;-122.338;2022-09-27T11:49:47;101395.19;;;14.79;71.45
70009;BME280;59542;37.950;-122.338;2022-09-27T11:58:29;101387.28;;;14.84;70.53
70009;BME280;59542;37.950;-122.338;2022-09-27T12:06:12;101388.97;;;14.78;70.79
70009;BME280;59542;37.950;-122.338;2022-09-27T12:14:18;101396.94;;;14.67;71.37
70009;BME280;59542;37.950;-122.338;2022-09-27T12:16:49;101392.03;;;14.82;70.80
70009;BME280;59542;37.950;-122.338;2022-09-27T12:19:28;101396.56;;;14.88;70.64
70009;BME280;59542;37.950;-122.338;2022-09-27T12:22:01;101391.53;;;14.92;70.66
70009;BME280;59542;37.950;-122.338;2022-09-27T12:24:29;101393.72;;;14.83;70.53
70009;BME280;59542;37.950;-122.338;2022-09-27T12:27:03;101399.06;;;15.08;69.67
70009;BME280;59542;37.950;-122.338;2022-09-27T12:29:37;101397.56;;;14.94;70.08
70009;BME280;59542;37.950;-122.338;2022-09-27T12:32:35;101397.19;;;15.09;69.91
70009;BME280;59542;37.950;-122.338;2022-09-27T12:40:32;101390.88;;;14.96;70.16
70009;BME280;59542;37.950;-122.338;2022-09-27T12:43:06;101387.75;;;14.99;70.16
70009;BME280;59542;37.950;-122.338;2022-09-27T12:51:13;101401.53;;;15.10;69.55
70009;BME280;59542;37.950;-122.338;2022-09-27T13:02:56;101398.91;;;15.03;68.93
70009;BME280;59542;37.950;-122.338;2022-09-27T13:05:34;101400.78;;;15.02;69.19
70009;BME280;59542;37.950;-122.338;2022-09-27T13:11:22;101396.03;;;15.23;68.65
70009;BME280;59542;37.950;-122.338;2022-09-27T13:13:59;101396.59;;;15.07;69.17
70009;BME280;59542;37.950;-122.338;2022-09-27T13:16:27;101400.75;;;14.84;69.71
70009;BME280;59542;37.950;-122.338;2022-09-27T13:18:55;101405.47;;;14.89;69.65
70009;BME280;59542;37.950;-122.338;2022-09-27T13:35:35;101416.97;;;15.02;69.39
70009;BME280;59542;37.950;-122.338;2022-09-27T13:38:02;101425.59;;;15.11;68.60
70009;BME280;59542;37.950;-122.338;2022-09-27T13:40:38;101430.22;;;15.04;69.10
70009;BME280;59542;37.950;-122.338;2022-09-27T13:43:30;101424.31;;;15.14;68.79
70009;BME280;59542;37.950;-122.338;2022-09-27T13:46:02;101431.59;;;15.13;68.62
70009;BME280;59542;37.950;-122.338;2022-09-27T13:48:46;101431.84;;;15.30;68.04
70009;BME280;59542;37.950;-122.338;2022-09-27T13:56:59;101431.72;;;15.00;68.95
70009;BME280;59542;37.950;-122.338;2022-09-27T13:59:47;101439.31;;;14.85;69.39
70009;BME280;59542;37.950;-122.338;2022-09-27T14:02:45;101446.03;;;15.00;68.96
70009;BME280;59542;37.950;-122.338;2022-09-27T14:05:20;101453.88;;;15.02;68.79
70009;BME280;59542;37.950;-122.338;2022-09-27T14:07:49;101452.28;;;14.94;69.09
70009;BME280;59542;37.950;-122.338;2022-09-27T14:10:18;101446.09;;;14.87;69.20
70009;BME280;59542;37.950;-122.338;2022-09-27T14:12:49;101446.63;;;15.02;68.62
70009;BME280;59542;37.950;-122.338;2022-09-27T14:15:20;101450.63;;;14.93;68.97
70009;BME280;59542;37.950;-122.338;2022-09-27T14:17:47;101447.59;;;15.08;68.83
70009;BME280;59542;37.950;-122.338;2022-09-27T14:20:38;101454.22;;;15.12;67.94
70009;BME280;59542;37.950;-122.338;2022-09-27T14:23:22;101459.28;;;15.02;68.71
70009;BME280;59542;37.950;-122.338;2022-09-27T14:25:53;101451.50;;;15.12;68.36
70009;BME280;59542;37.950;-122.338;2022-09-27T14:28:28;101468.84;;;14.98;68.54
70009;BME280;59542;37.950;-122.338;2022-09-27T14:31:22;101469.19;;;14.76;69.35
70009;BME280;59542;37.950;-122.338;2022-09-27T14:33:50;101473.00;;;14.69;69.65
70009;BME280;59542;37.950;-122.338;2022-09-27T14:36:31;101475.09;;;14.92;69.10
70009;BME280;59542;37.950;-122.338;2022-09-27T14:41:48;101471.88;;;15.33;67.90
70009;BME280;59542;37.950;-122.338;2022-09-27T14:44:17;101477.19;;;15.15;68.10
70009;BME280;59542;37.950;-122.338;2022-09-27T14:46:43;101475.28;;;15.22;67.65
70009;BME280;59542;37.950;-122.338;2022-09-27T14:49:21;101475.66;;;15.25;68.11
70009;BME280;59542;37.950;-122.338;2022-09-27T14:51:52;101483.97;;;15.24;67.90
70009;BME280;59542;37.950;-122.338;2022-09-27T14:54:22;101472.75;;;15.27;67.72
70009;BME280;59542;37.950;-122.338;2022-09-27T14:56:50;101482.56;;;15.21;67.93
70009;BME280;59542;37.950;-122.338;2022-09-27T14:59:23;101483.09;;;15.30;67.48
70009;BME280;59542;37.950;-122.338;2022-09-27T15:01:52;101483.47;;;15.34;67.46
70009;BME280;59542;37.950;-122.338;2022-09-27T15:04:21;101485.03;;;15.23;67.58
70009;BME280;59542;37.950;-122.338;2022-09-27T15:06:48;101486.25;;;15.45;66.80
70009;BME280;59542;37.950;-122.338;2022-09-27T15:09:15;101493.28;;;15.28;67.36
70009;BME280;59542;37.950;-122.338;2022-09-27T15:11:44;101488.03;;;15.08;67.59
70009;BME280;59542;37.950;-122.338;2022-09-27T15:14:15;101486.41;;;15.07;67.82
70009;BME280;59542;37.950;-122.338;2022-09-27T15:16:45;101493.53;;;15.20;67.40
70009;BME280;59542;37.950;-122.338;2022-09-27T15:19:25;101491.63;;;15.27;67.97
70009;BME280;59542;37.950;-122.338;2022-09-27T15:21:52;101491.47;;;15.22;68.26
70009;BME280;59542;37.950;-122.338;2022-09-27T15:24:44;101493.53;;;15.20;67.90
70009;BME280;59542;37.950;-122.338;2022-09-27T15:27:22;101496.66;;;15.42;67.59